Etusivu
METAR-TAF:

METAR-TAF

Lentoasemat :

Florø, Norja

Leveyspiiri: 61-35N, Pituuspiiri: 005-02E, korkeus merenpinnasta: 0 m

Tämänhetkinen sää

Tämä raportti tehtiin 24 minuuttia sitten, kello 13.20 UTC
Tuuli 24 kn etelästä
Lämpötila 16°C
Kosteus 48%
Ilmanpaine 1020 hPa
Näkyvyys 10 km tai enemmän
Hajanaisia pilviä 5000 ft:n korkeudessa
Hajonneita pilviä 18000 ft:n korkeudessa

METAR: ENFL 201320Z 19024KT 9999 SCT050 BKN180 16/05 Q1020

Aika: 15:44 (13:44 UTC)


TAF: puuttuu

Säähavainnot ja -ennusteet yli 4000 lentoasemalta (METAR- ja TAF-raportit).

Käytössä olevat sääasemat on merkitty karttaan keltaisilla ja punaisilla pisteillä.

Aseta hiiri pisteen päälle nähdäksesi sääaseman nimen.

Klikkaa sitten nähdäksesi säähavainnot ja -ennusteet.

Kartan vaihtaminen: klikkaa mustalla rastilla varustettuja vihreitä pisteitä, niin voit zoomata sisään; viivalla varustettua vihreää pistettä, niin voit zoomata ulos tai vihreitä nuolia, niin pääset viereisille kartoille.


METAR-TAF: